Terminal Aerodrome Forecast
Issued by NWS Duluth, MN

Home | Current Version | Previous Version | Text Only | Print | Product List | Glossary On
Versions: 1 2 3 4 5 6 7 8 9 10 11 12 13 14 15 16 17 18 19 20 21 22 23 24 25
000
FTUS43 KDLH 051700
TAFDLH
TAF
KDLH 051737Z 0518/0618 25010KT P6SM FEW025
     FM052000 24011KT P6SM SCT035
     FM060400 21012KT P6SM FEW035 WS015/24042KT
     FM061100 24008KT P6SM SCT030 BKN050=

USA.gov is the U.S. government's official web portal to all federal, state and local government web resources and services.